createdAt,value
2018-04-27T00:00:15.660Z,1.20
2018-04-27T00:01:15.716Z,1.10
2018-04-27T00:02:15.773Z,1.40
2018-04-27T00:03:15.829Z,1.10
2018-04-27T00:04:16.386Z,1.10
2018-04-27T00:05:15.941Z,1.30
2018-04-27T00:06:15.999Z,1.40
2018-04-27T00:07:16.053Z,1.20
2018-04-27T00:08:16.110Z,1.30
2018-04-27T00:09:16.164Z,1.30
2018-04-27T00:10:16.221Z,1.20
2018-04-27T00:11:16.277Z,1.10
2018-04-27T00:12:16.334Z,1.20
2018-04-27T00:13:16.395Z,1.00
2018-04-27T00:14:16.446Z,1.30
2018-04-27T00:15:16.500Z,1.10
2018-04-27T00:16:16.558Z,1.00
2018-04-27T00:17:16.615Z,1.40
2018-04-27T00:18:16.672Z,1.20
2018-04-27T00:19:16.726Z,1.30
2018-04-27T00:20:16.782Z,1.30
2018-04-27T00:21:16.838Z,1.10
2018-04-27T00:22:16.894Z,1.20
2018-04-27T00:23:16.950Z,1.10
2018-04-27T00:24:17.005Z,1.40
2018-04-27T00:25:17.062Z,1.50
2018-04-27T00:26:17.117Z,1.10
2018-04-27T00:27:17.427Z,1.40
2018-04-27T00:28:17.241Z,1.30
2018-04-27T00:29:17.285Z,1.40
2018-04-27T00:30:17.342Z,1.10
2018-04-27T00:31:17.397Z,1.20
2018-04-27T00:32:17.453Z,1.20
2018-04-27T00:33:17.508Z,1.20
2018-04-27T00:34:17.647Z,1.10
2018-04-27T00:35:17.622Z,1.40
2018-04-27T00:36:17.676Z,1.30
2018-04-27T00:37:17.737Z,1.00
2018-04-27T00:38:17.790Z,1.10
2018-04-27T00:39:17.844Z,1.10
2018-04-27T00:40:17.900Z,1.10
2018-04-27T00:41:17.957Z,1.00
2018-04-27T00:42:18.013Z,1.30
2018-04-27T00:43:18.068Z,1.30
2018-04-27T00:44:18.123Z,1.20
2018-04-27T00:45:18.179Z,1.20
2018-04-27T00:46:18.236Z,1.40
2018-04-27T00:47:18.292Z,1.00
2018-04-27T00:48:18.348Z,1.10
2018-04-27T00:49:18.407Z,1.10
2018-04-27T00:50:18.460Z,1.20
2018-04-27T00:51:18.515Z,1.30
2018-04-27T00:52:18.571Z,1.20
2018-04-27T00:53:18.626Z,1.00
2018-04-27T00:54:18.684Z,0.90
2018-04-27T00:55:18.738Z,1.30
2018-04-27T00:56:18.795Z,1.40
2018-04-27T00:57:18.850Z,1.10
2018-04-27T00:58:18.907Z,1.20
2018-04-27T00:59:18.962Z,1.30
2018-04-27T01:00:19.016Z,1.50
2018-04-27T01:01:19.076Z,1.40
2018-04-27T01:02:19.129Z,1.20
2018-04-27T01:03:19.186Z,1.30
2018-04-27T01:04:19.242Z,1.30
2018-04-27T01:05:19.297Z,1.20
2018-04-27T01:06:19.354Z,1.70
2018-04-27T01:07:19.407Z,1.20
2018-04-27T01:08:19.463Z,1.10
2018-04-27T01:09:19.521Z,1.30
2018-04-27T01:10:19.580Z,1.40
2018-04-27T01:11:19.630Z,1.20
2018-04-27T01:12:19.685Z,1.30
2018-04-27T01:13:19.741Z,1.60
2018-04-27T01:14:19.800Z,1.20
2018-04-27T01:15:19.854Z,1.20
2018-04-27T01:16:19.910Z,1.10
2018-04-27T01:17:19.964Z,1.20
2018-04-27T01:18:20.023Z,1.20
2018-04-27T01:19:20.076Z,1.10
2018-04-27T01:20:20.133Z,1.00
2018-04-27T01:21:20.189Z,1.00
2018-04-27T01:22:20.244Z,1.20
2018-04-27T01:23:20.298Z,1.40
2018-04-27T01:24:20.355Z,1.10
2018-04-27T01:25:20.411Z,1.10
2018-04-27T01:26:20.465Z,1.60
2018-04-27T01:27:20.520Z,1.20
2018-04-27T01:28:20.575Z,1.20
2018-04-27T01:29:20.632Z,1.30
2018-04-27T01:30:20.690Z,1.40
2018-04-27T01:31:20.742Z,1.00
2018-04-27T01:32:20.830Z,1.40
2018-04-27T01:33:20.854Z,1.20
2018-04-27T01:34:20.909Z,1.30
2018-04-27T01:35:20.963Z,1.20
2018-04-27T01:36:21.018Z,1.20
2018-04-27T01:37:21.074Z,1.30
2018-04-27T01:38:21.131Z,1.10
2018-04-27T01:39:21.184Z,1.40
2018-04-27T01:40:21.241Z,1.20
2018-04-27T01:41:21.296Z,1.10
2018-04-27T01:42:21.353Z,1.00
2018-04-27T01:43:21.407Z,1.10
2018-04-27T01:44:21.464Z,1.40
2018-04-27T01:45:21.519Z,1.40
2018-04-27T01:46:22.779Z,1.20
2018-04-27T01:47:21.882Z,1.40
2018-04-27T01:48:21.688Z,1.10
2018-04-27T01:49:21.744Z,1.10
2018-04-27T01:50:21.800Z,1.20
2018-04-27T01:51:21.854Z,1.40
2018-04-27T01:52:21.910Z,1.10
2018-04-27T01:53:22.465Z,1.00
2018-04-27T01:54:22.609Z,1.40
2018-04-27T01:55:22.694Z,1.30
2018-04-27T01:56:22.661Z,1.00
2018-04-27T01:57:22.189Z,1.30
2018-04-27T01:58:22.243Z,1.10
2018-04-27T01:59:22.299Z,1.20
2018-04-27T02:00:22.353Z,1.40
2018-04-27T02:01:22.938Z,1.30
2018-04-27T02:02:22.466Z,1.30
2018-04-27T02:03:22.520Z,1.70
2018-04-27T02:04:23.387Z,1.40
2018-04-27T02:05:22.631Z,1.20
2018-04-27T02:06:22.687Z,1.00
2018-04-27T02:07:22.741Z,1.50
2018-04-27T02:08:22.796Z,1.40
2018-04-27T02:09:22.855Z,1.10
2018-04-27T02:10:22.908Z,1.40
2018-04-27T02:11:22.965Z,1.40
2018-04-27T02:12:23.020Z,1.00
2018-04-27T02:13:23.075Z,1.40
2018-04-27T02:14:23.133Z,1.10
2018-04-27T02:15:24.298Z,1.30
2018-04-27T02:16:23.242Z,1.40
2018-04-27T02:17:23.973Z,1.20
2018-04-27T02:18:23.944Z,1.30
2018-04-27T02:19:23.958Z,1.40
2018-04-27T02:20:23.463Z,1.20
2018-04-27T02:21:23.517Z,1.20
2018-04-27T02:22:23.575Z,1.30
2018-04-27T02:23:24.144Z,1.30
2018-04-27T02:24:24.176Z,1.50
2018-04-27T02:25:23.740Z,1.30
2018-04-27T02:26:23.796Z,1.40
2018-04-27T02:27:23.851Z,1.20
2018-04-27T02:28:23.905Z,1.30
2018-04-27T02:29:23.966Z,1.20
2018-04-27T02:30:24.017Z,1.30
2018-04-27T02:31:24.074Z,1.60
2018-04-27T02:32:24.594Z,1.20
2018-04-27T02:33:27.807Z,1.20
2018-04-27T02:34:24.238Z,1.30
2018-04-27T02:35:24.295Z,1.60
2018-04-27T02:36:24.348Z,1.10
2018-04-27T02:37:24.406Z,0.90
2018-04-27T02:38:25.352Z,1.00
2018-04-27T02:39:24.513Z,1.60
2018-04-27T02:40:24.569Z,1.10
2018-04-27T02:41:24.626Z,1.60
2018-04-27T02:42:24.680Z,1.20
2018-04-27T02:43:24.740Z,1.10
2018-04-27T02:44:24.791Z,1.50
2018-04-27T02:45:24.845Z,1.20
2018-04-27T02:46:24.901Z,1.30
2018-04-27T02:47:24.955Z,1.30
2018-04-27T02:48:25.016Z,1.10
2018-04-27T02:49:25.066Z,1.50
2018-04-27T02:50:25.122Z,1.40
2018-04-27T02:51:25.176Z,1.40
2018-04-27T02:52:25.749Z,1.40
2018-04-27T02:53:25.291Z,1.30
2018-04-27T02:54:25.347Z,0.90
2018-04-27T02:55:25.398Z,1.30
2018-04-27T02:56:25.454Z,1.00
2018-04-27T02:57:25.509Z,1.20
2018-04-27T02:58:25.565Z,1.60
2018-04-27T02:59:25.621Z,1.30
2018-04-27T03:00:25.683Z,1.50
2018-04-27T03:01:25.730Z,1.20
2018-04-27T03:02:25.785Z,1.10
2018-04-27T03:03:25.841Z,1.20
2018-04-27T03:04:25.897Z,1.10
2018-04-27T03:05:25.956Z,1.30
2018-04-27T03:06:26.007Z,1.20
2018-04-27T03:07:26.061Z,1.30
2018-04-27T03:08:26.117Z,1.10
2018-04-27T03:09:26.172Z,1.10
2018-04-27T03:10:26.227Z,1.60
2018-04-27T03:11:26.282Z,1.40
2018-04-27T03:12:26.337Z,1.20
2018-04-27T03:13:26.394Z,1.50
2018-04-27T03:14:26.920Z,1.40
2018-04-27T03:15:27.067Z,1.20
2018-04-27T03:16:27.143Z,1.40
2018-04-27T03:17:26.614Z,1.20
2018-04-27T03:18:26.668Z,1.40
2018-04-27T03:19:26.723Z,1.10
2018-04-27T03:20:26.779Z,1.20
2018-04-27T03:21:26.835Z,1.20
2018-04-27T03:22:26.892Z,1.70
2018-04-27T03:23:26.944Z,1.20
2018-04-27T03:24:27.250Z,1.30
2018-04-27T03:25:27.058Z,1.00
2018-04-27T03:26:27.115Z,1.10
2018-04-27T03:27:27.164Z,1.30
2018-04-27T03:28:27.222Z,1.40
2018-04-27T03:29:27.276Z,1.20
2018-04-27T03:30:27.334Z,1.40
2018-04-27T03:31:27.387Z,1.10
2018-04-27T03:32:27.442Z,1.20
2018-04-27T03:33:27.499Z,1.10
2018-04-27T03:34:27.553Z,1.50
2018-04-27T03:35:27.608Z,1.40
2018-04-27T03:36:27.663Z,0.90
2018-04-27T03:37:27.719Z,1.10
2018-04-27T03:38:27.775Z,1.40
2018-04-27T03:39:27.830Z,1.40
2018-04-27T03:40:27.890Z,1.60
2018-04-27T03:41:27.941Z,1.30
2018-04-27T03:42:27.997Z,1.20
2018-04-27T03:43:28.052Z,1.20
2018-04-27T03:44:28.109Z,1.40
2018-04-27T03:45:28.162Z,1.20
2018-04-27T03:46:28.218Z,1.60
2018-04-27T03:47:28.272Z,1.00
2018-04-27T03:48:28.327Z,1.50
2018-04-27T03:49:28.381Z,1.20
2018-04-27T03:50:28.438Z,1.30
2018-04-27T03:51:28.494Z,1.50
2018-04-27T03:52:28.549Z,1.30
2018-04-27T03:53:28.605Z,1.10
2018-04-27T03:54:28.666Z,1.40
2018-04-27T03:55:28.714Z,1.10
2018-04-27T03:56:28.770Z,1.40
2018-04-27T03:57:28.826Z,1.20
2018-04-27T03:58:28.882Z,1.40
2018-04-27T03:59:28.935Z,1.40
2018-04-27T04:00:28.991Z,1.50
2018-04-27T04:01:29.091Z,1.10
2018-04-27T04:02:29.103Z,1.10
2018-04-27T04:03:29.308Z,1.30
2018-04-27T04:04:29.212Z,0.90
2018-04-27T04:05:29.268Z,1.30
2018-04-27T04:06:29.323Z,1.40
2018-04-27T04:07:29.379Z,1.50
2018-04-27T04:08:29.434Z,1.10
2018-04-27T04:09:29.519Z,1.30
2018-04-27T04:10:29.544Z,1.30
2018-04-27T04:11:29.601Z,1.40
2018-04-27T04:12:29.656Z,1.60
2018-04-27T04:13:29.711Z,1.30
2018-04-27T04:14:29.765Z,1.40
2018-04-27T04:15:29.821Z,1.30
2018-04-27T04:16:29.874Z,1.30
2018-04-27T04:17:29.931Z,1.40
2018-04-27T04:18:29.986Z,1.40
2018-04-27T04:19:30.040Z,1.10
2018-04-27T04:20:30.094Z,1.30
2018-04-27T04:21:30.151Z,1.10
2018-04-27T04:22:30.205Z,1.00
2018-04-27T04:23:30.260Z,1.30
2018-04-27T04:24:30.316Z,1.10
2018-04-27T04:25:30.371Z,1.40
2018-04-27T04:26:30.428Z,1.20
2018-04-27T04:27:30.487Z,1.30
2018-04-27T04:28:30.539Z,1.10
2018-04-27T04:29:30.591Z,1.40
2018-04-27T04:30:30.647Z,1.70
2018-04-27T04:31:30.705Z,1.30
2018-04-27T04:32:30.755Z,1.20
2018-04-27T04:33:30.812Z,1.10
2018-04-27T04:34:30.867Z,1.30
2018-04-27T04:35:30.921Z,1.10
2018-04-27T04:36:30.977Z,1.00
2018-04-27T04:37:31.032Z,1.40
2018-04-27T04:38:31.088Z,1.50
2018-04-27T04:39:31.141Z,1.30
2018-04-27T04:40:31.198Z,1.40
2018-04-27T04:41:31.254Z,1.50
2018-04-27T04:42:31.309Z,1.50
2018-04-27T04:43:31.363Z,1.20
2018-04-27T04:44:31.419Z,1.20
2018-04-27T04:45:31.475Z,1.20
2018-04-27T04:46:31.533Z,1.40
2018-04-27T04:47:31.584Z,1.40
2018-04-27T04:48:31.640Z,1.10
2018-04-27T04:49:31.695Z,0.90
2018-04-27T04:50:31.751Z,1.30
2018-04-27T04:51:31.806Z,1.40
2018-04-27T04:52:31.935Z,1.20
2018-04-27T04:53:32.492Z,1.30
2018-04-27T04:54:32.474Z,1.40
2018-04-27T04:55:32.176Z,1.30
2018-04-27T04:56:32.082Z,1.20
2018-04-27T04:57:32.179Z,1.40
2018-04-27T04:58:32.193Z,1.40
2018-04-27T04:59:32.249Z,1.00
2018-04-27T05:00:32.304Z,1.10
2018-04-27T05:01:32.360Z,1.30
2018-04-27T05:02:32.420Z,1.50
2018-04-27T05:03:32.474Z,1.70
2018-04-27T05:04:32.528Z,1.30
2018-04-27T05:05:32.619Z,1.30
2018-04-27T05:06:32.637Z,1.50
2018-04-27T05:07:32.691Z,1.30
2018-04-27T05:08:32.751Z,1.50
2018-04-27T05:09:32.805Z,1.40
2018-04-27T05:10:32.872Z,1.00
2018-04-27T05:11:32.915Z,1.40
2018-04-27T05:12:32.969Z,1.40
2018-04-27T05:13:33.027Z,1.10
2018-04-27T05:14:33.082Z,1.40
2018-04-27T05:15:33.136Z,1.30
2018-04-27T05:16:33.195Z,1.40
2018-04-27T05:17:33.248Z,1.60
2018-04-27T05:18:33.305Z,1.30
2018-04-27T05:19:33.360Z,1.40
2018-04-27T05:20:33.414Z,1.50
2018-04-27T05:21:33.804Z,1.20
2018-04-27T05:22:33.528Z,1.30
2018-04-27T05:23:33.582Z,1.00
2018-04-27T05:24:33.642Z,1.40
2018-04-27T05:25:34.004Z,1.20
2018-04-27T05:26:34.060Z,1.20
2018-04-27T05:27:33.858Z,1.20
2018-04-27T05:28:33.862Z,1.30
2018-04-27T05:29:33.919Z,1.30
2018-04-27T05:30:33.974Z,1.20
2018-04-27T05:31:34.029Z,1.40
2018-04-27T05:32:34.083Z,1.50
2018-04-27T05:33:34.140Z,1.30
2018-04-27T05:34:34.197Z,1.40
2018-04-27T05:35:34.252Z,1.40
2018-04-27T05:36:34.331Z,1.60
2018-04-27T05:37:34.364Z,1.40
2018-04-27T05:38:34.420Z,1.70
2018-04-27T05:39:34.476Z,1.50
2018-04-27T05:40:34.588Z,1.40
2018-04-27T05:41:34.592Z,1.40
2018-04-27T05:42:34.954Z,1.30
2018-04-27T05:43:34.699Z,1.20
2018-04-27T05:44:34.760Z,1.10
2018-04-27T05:45:34.814Z,1.40
2018-04-27T05:46:34.868Z,1.40
2018-04-27T05:47:34.925Z,1.50
2018-04-27T05:48:34.981Z,1.60
2018-04-27T05:49:35.038Z,1.50
2018-04-27T05:50:35.093Z,1.70
2018-04-27T05:51:35.151Z,1.60
2018-04-27T05:52:35.209Z,1.30
2018-04-27T05:53:35.573Z,1.20
2018-04-27T05:54:35.332Z,1.20
2018-04-27T05:55:35.445Z,1.60
2018-04-27T05:56:35.430Z,1.60
2018-04-27T05:57:35.488Z,1.40
2018-04-27T05:58:35.544Z,1.30
2018-04-27T05:59:35.600Z,1.50
2018-04-27T06:00:35.657Z,1.40
2018-04-27T06:01:35.719Z,1.80
2018-04-27T06:02:35.772Z,1.30
2018-04-27T06:03:35.827Z,1.60
2018-04-27T06:04:36.153Z,1.80
2018-04-27T06:05:35.942Z,1.50
2018-04-27T06:06:35.999Z,1.70
2018-04-27T06:07:36.057Z,1.50
2018-04-27T06:08:36.113Z,1.50
2018-04-27T06:09:36.169Z,1.60
2018-04-27T06:10:36.236Z,1.70
2018-04-27T06:11:36.284Z,1.50
2018-04-27T06:12:36.342Z,1.60
2018-04-27T06:13:36.400Z,2.00
2018-04-27T06:14:37.004Z,1.60
2018-04-27T06:15:36.514Z,1.80
2018-04-27T06:16:36.570Z,1.70
2018-04-27T06:17:37.059Z,1.90
2018-04-27T06:18:36.687Z,1.50
2018-04-27T06:19:36.743Z,1.60
2018-04-27T06:20:36.801Z,1.60
2018-04-27T06:21:36.859Z,1.60
2018-04-27T06:22:36.915Z,1.50
2018-04-27T06:23:36.973Z,1.60
2018-04-27T06:24:37.031Z,1.60
2018-04-27T06:25:37.091Z,1.90
2018-04-27T06:26:37.152Z,1.40
2018-04-27T06:27:37.203Z,1.80
2018-04-27T06:28:37.262Z,1.70
2018-04-27T06:29:37.319Z,1.70
2018-04-27T06:30:37.377Z,1.60
2018-04-27T06:31:37.434Z,1.80
2018-04-27T06:32:37.492Z,1.70
2018-04-27T06:33:37.557Z,1.40
2018-04-27T06:34:37.608Z,1.60
2018-04-27T06:35:37.667Z,1.70
2018-04-27T06:36:37.728Z,1.70
2018-04-27T06:37:37.782Z,1.70
2018-04-27T06:38:37.839Z,1.60
2018-04-27T06:39:37.901Z,1.60
2018-04-27T06:40:37.956Z,1.50
2018-04-27T06:41:38.087Z,1.30
2018-04-27T06:42:38.069Z,1.80
2018-04-27T06:43:38.126Z,1.60
2018-04-27T06:44:38.184Z,2.00
2018-04-27T06:45:38.246Z,1.50
2018-04-27T06:46:38.300Z,1.70
2018-04-27T06:47:38.358Z,1.80
2018-04-27T06:48:38.416Z,1.70
2018-04-27T06:49:38.477Z,1.80
2018-04-27T06:50:38.532Z,2.20
2018-04-27T06:51:38.716Z,1.80
2018-04-27T06:52:38.730Z,2.00
2018-04-27T06:53:38.705Z,2.10
2018-04-27T06:54:38.764Z,2.00
2018-04-27T06:55:38.825Z,2.10
2018-04-27T06:56:38.880Z,1.70
2018-04-27T06:57:38.937Z,2.10
2018-04-27T06:58:38.995Z,1.90
2018-04-27T06:59:39.055Z,1.80
2018-04-27T07:00:39.114Z,2.30
2018-04-27T07:01:39.171Z,2.00
2018-04-27T07:02:39.229Z,1.60
2018-04-27T07:03:39.292Z,1.60
2018-04-27T07:04:39.346Z,2.10
2018-04-27T07:05:39.406Z,1.80
2018-04-27T07:06:39.463Z,1.80
2018-04-27T07:07:39.523Z,1.80
2018-04-27T07:08:39.578Z,2.00
2018-04-27T07:09:39.636Z,1.90
2018-04-27T07:10:40.526Z,1.90
2018-04-27T07:11:39.813Z,2.30
2018-04-27T07:12:39.813Z,2.00
2018-04-27T07:13:39.870Z,1.80
2018-04-27T07:14:39.931Z,1.80
2018-04-27T07:15:39.992Z,2.00
2018-04-27T07:16:40.049Z,2.40
2018-04-27T07:17:40.104Z,2.70
2018-04-27T07:18:40.205Z,2.50
2018-04-27T07:19:40.221Z,2.30
2018-04-27T07:20:40.281Z,2.70
2018-04-27T07:21:40.339Z,3.10
2018-04-27T07:22:40.417Z,2.40
2018-04-27T07:23:40.457Z,2.30
2018-04-27T07:24:40.548Z,2.30
2018-04-27T07:25:40.573Z,2.30
2018-04-27T07:26:40.633Z,2.50
2018-04-27T07:27:40.691Z,2.40
2018-04-27T07:28:40.750Z,2.40
2018-04-27T07:29:40.810Z,2.70
2018-04-27T07:30:40.867Z,2.10
2018-04-27T07:31:40.927Z,2.10
2018-04-27T07:32:40.985Z,2.50
2018-04-27T07:33:41.047Z,2.50
2018-04-27T07:34:41.104Z,2.00
2018-04-27T07:35:41.163Z,2.10
2018-04-27T07:36:41.220Z,2.00
2018-04-27T07:37:41.281Z,1.80
2018-04-27T07:38:41.340Z,2.00
2018-04-27T07:39:41.409Z,1.80
2018-04-27T07:40:41.457Z,2.00
2018-04-27T07:41:41.517Z,2.40
2018-04-27T07:42:41.577Z,2.10
2018-04-27T07:43:41.634Z,2.30
2018-04-27T07:44:41.695Z,2.50
2018-04-27T07:45:41.753Z,1.90
2018-04-27T07:46:41.813Z,2.10
2018-04-27T07:47:41.871Z,2.10
2018-04-27T07:48:41.933Z,2.10
2018-04-27T07:49:41.991Z,2.10
2018-04-27T07:50:42.050Z,2.00
2018-04-27T07:51:42.109Z,2.30
2018-04-27T07:52:42.170Z,1.90
2018-04-27T07:53:42.229Z,2.10
2018-04-27T07:54:42.288Z,2.00
2018-04-27T07:55:42.349Z,1.80
2018-04-27T07:56:42.409Z,2.20
2018-04-27T07:57:42.468Z,1.80
2018-04-27T07:58:42.530Z,2.10
2018-04-27T07:59:42.588Z,2.20
2018-04-27T08:00:42.648Z,2.10
2018-04-27T08:01:42.715Z,2.20
2018-04-27T08:02:42.768Z,2.10
2018-04-27T08:03:42.828Z,2.00
2018-04-27T08:04:42.889Z,2.20
2018-04-27T08:05:42.954Z,2.00
2018-04-27T08:06:43.008Z,1.90
2018-04-27T08:07:43.070Z,2.10
2018-04-27T08:08:43.127Z,2.30
2018-04-27T08:09:43.193Z,2.30
2018-04-27T08:10:43.253Z,2.20
2018-04-27T08:11:43.317Z,2.00
2018-04-27T08:12:43.373Z,2.20
2018-04-27T08:13:43.431Z,1.70
2018-04-27T08:14:43.490Z,2.10
2018-04-27T08:15:43.551Z,2.20
2018-04-27T08:16:43.611Z,2.20
2018-04-27T08:17:43.673Z,2.20
2018-04-27T08:18:43.759Z,2.10
2018-04-27T08:19:43.792Z,1.90
2018-04-27T08:20:43.853Z,1.90
2018-04-27T08:21:44.659Z,2.00
2018-04-27T08:22:43.974Z,1.90
2018-04-27T08:23:44.033Z,1.80
2018-04-27T08:24:44.093Z,1.90
2018-04-27T08:25:44.154Z,2.10
2018-04-27T08:26:44.216Z,2.10
2018-04-27T08:27:44.275Z,2.00
2018-04-27T08:28:44.694Z,1.90
2018-04-27T08:29:44.397Z,1.90
2018-04-27T08:30:44.458Z,1.90
2018-04-27T08:31:44.519Z,1.80
2018-04-27T08:32:44.579Z,2.10
2018-04-27T08:33:44.642Z,2.00
2018-04-27T08:34:44.702Z,1.90
2018-04-27T08:35:44.761Z,2.00
2018-04-27T08:36:44.823Z,1.70
2018-04-27T08:37:44.884Z,2.10
2018-04-27T08:38:44.945Z,2.10
2018-04-27T08:39:45.006Z,1.90
2018-04-27T08:40:45.067Z,2.00
2018-04-27T08:41:45.128Z,2.00
2018-04-27T08:42:45.190Z,1.70
2018-04-27T08:43:45.259Z,1.60
2018-04-27T08:44:45.311Z,1.70
2018-04-27T08:45:45.373Z,1.80
2018-04-27T08:46:45.435Z,1.80
2018-04-27T08:47:45.525Z,1.50
2018-04-27T08:48:45.867Z,2.00
2018-04-27T08:49:45.618Z,1.50
2018-04-27T08:50:45.682Z,1.90
2018-04-27T08:51:45.742Z,1.70
2018-04-27T08:52:45.804Z,1.60
2018-04-27T08:53:45.867Z,1.70
2018-04-27T08:54:45.928Z,1.50
2018-04-27T08:55:46.474Z,1.80
2018-04-27T08:56:46.051Z,1.80
2018-04-27T08:57:46.124Z,1.50
2018-04-27T08:58:46.189Z,1.40
2018-04-27T08:59:46.238Z,1.60
2018-04-27T09:00:46.304Z,1.40
2018-04-27T09:01:46.361Z,1.70
2018-04-27T09:02:46.499Z,1.60
2018-04-27T09:03:46.485Z,1.20
2018-04-27T09:04:46.548Z,1.30
2018-04-27T09:05:46.611Z,1.30
2018-04-27T09:06:46.673Z,1.70
2018-04-27T09:07:46.734Z,1.30
2018-04-27T09:08:46.801Z,1.70
2018-04-27T09:09:46.871Z,1.60
2018-04-27T09:10:46.925Z,1.50
2018-04-27T09:11:46.984Z,1.60
2018-04-27T09:12:47.045Z,1.20
2018-04-27T09:13:47.112Z,1.00
2018-04-27T09:14:47.173Z,1.40
2018-04-27T09:15:47.231Z,1.30
2018-04-27T09:16:47.295Z,1.70
2018-04-27T09:17:47.358Z,1.30
2018-04-27T09:18:47.420Z,1.60
2018-04-27T09:19:47.481Z,1.50
2018-04-27T09:20:47.545Z,1.30
2018-04-27T09:21:48.192Z,1.10
2018-04-27T09:22:47.669Z,1.40
2018-04-27T09:23:47.735Z,1.30
2018-04-27T09:24:47.798Z,1.30
2018-04-27T09:25:47.859Z,1.30
2018-04-27T09:26:47.923Z,1.50
2018-04-27T09:27:47.980Z,1.50
2018-04-27T09:28:48.043Z,1.60
2018-04-27T09:29:48.111Z,1.60
2018-04-27T09:30:48.205Z,1.60
2018-04-27T09:31:48.230Z,1.10
2018-04-27T09:32:48.292Z,1.40
2018-04-27T09:33:48.355Z,1.60
2018-04-27T09:34:48.735Z,1.70
2018-04-27T09:35:48.485Z,1.30
2018-04-27T09:36:48.541Z,1.30
2018-04-27T09:37:48.608Z,1.20
2018-04-27T09:38:48.672Z,1.30
2018-04-27T09:39:48.729Z,0.90
2018-04-27T09:40:48.794Z,0.90
2018-04-27T09:41:48.860Z,1.00
2018-04-27T09:42:48.916Z,1.30
2018-04-27T09:43:48.979Z,1.30
2018-04-27T09:44:49.044Z,1.20
2018-04-27T09:45:49.106Z,1.10
2018-04-27T09:46:49.171Z,1.50
2018-04-27T09:47:49.230Z,1.20
2018-04-27T09:48:49.291Z,1.50
2018-04-27T09:49:49.358Z,1.10
2018-04-27T09:50:49.503Z,1.30
2018-04-27T09:51:49.483Z,1.50
2018-04-27T09:52:49.541Z,1.20
2018-04-27T09:53:49.606Z,1.20
2018-04-27T09:54:49.673Z,1.10
2018-04-27T09:55:49.731Z,0.80
2018-04-27T09:56:49.794Z,1.10
2018-04-27T09:57:49.860Z,1.30
2018-04-27T09:58:49.918Z,1.30
2018-04-27T09:59:49.986Z,1.50
2018-04-27T10:00:50.408Z,1.20
2018-04-27T10:01:50.106Z,1.20
2018-04-27T10:02:50.169Z,1.20
2018-04-27T10:03:50.233Z,1.20
2018-04-27T10:04:50.294Z,1.70
2018-04-27T10:05:50.357Z,1.10
2018-04-27T10:06:50.422Z,1.20
2018-04-27T10:07:50.483Z,1.80
2018-04-27T10:08:50.546Z,1.50
2018-04-27T10:09:50.638Z,1.50
2018-04-27T10:10:50.677Z,1.20
2018-04-27T10:11:50.736Z,1.30
2018-04-27T10:12:50.798Z,1.30
2018-04-27T10:13:50.862Z,1.20
2018-04-27T10:14:50.925Z,1.10
2018-04-27T10:15:50.988Z,1.50
2018-04-27T10:16:51.052Z,1.30
2018-04-27T10:17:51.116Z,1.30
2018-04-27T10:18:51.178Z,1.40
2018-04-27T10:19:51.241Z,1.40
2018-04-27T10:20:51.308Z,1.10
2018-04-27T10:21:51.370Z,1.20
2018-04-27T10:22:51.434Z,1.70
2018-04-27T10:23:51.496Z,1.20
2018-04-27T10:24:51.563Z,1.10
2018-04-27T10:25:51.628Z,1.30
2018-04-27T10:26:51.693Z,1.40
2018-04-27T10:27:51.759Z,1.50
2018-04-27T10:28:51.823Z,1.10
2018-04-27T10:29:51.888Z,1.20
2018-04-27T10:30:51.955Z,1.20
2018-04-27T10:31:52.020Z,1.50
2018-04-27T10:32:52.087Z,1.50
2018-04-27T10:33:52.156Z,1.50
2018-04-27T10:34:52.225Z,1.30
2018-04-27T10:35:52.288Z,1.40
2018-04-27T10:36:52.355Z,1.30
2018-04-27T10:37:52.421Z,1.30
2018-04-27T10:38:52.491Z,1.40
2018-04-27T10:39:52.559Z,1.40
2018-04-27T10:40:52.626Z,1.50
2018-04-27T10:41:52.697Z,1.60
2018-04-27T10:42:52.764Z,1.30
2018-04-27T10:43:52.833Z,1.40
2018-04-27T10:44:52.902Z,1.30
2018-04-27T10:45:52.971Z,1.40
2018-04-27T10:46:53.042Z,1.30
2018-04-27T10:47:53.111Z,1.20
2018-04-27T10:48:53.190Z,1.40
2018-04-27T10:49:53.251Z,1.60
2018-04-27T10:50:53.324Z,1.30
2018-04-27T10:51:53.398Z,1.30
2018-04-27T10:52:53.861Z,1.50
2018-04-27T10:53:53.549Z,1.70
2018-04-27T10:54:53.682Z,1.40
2018-04-27T10:55:53.672Z,1.80
2018-04-27T10:56:53.741Z,1.60
2018-04-27T10:57:53.824Z,1.40
2018-04-27T10:58:53.885Z,1.40
2018-04-27T10:59:53.956Z,1.50
2018-04-27T11:00:54.037Z,1.20
2018-04-27T11:01:54.095Z,1.40
2018-04-27T11:02:54.166Z,1.40
2018-04-27T11:03:54.237Z,1.20
2018-04-27T11:04:54.307Z,1.50
2018-04-27T11:05:54.378Z,1.30
2018-04-27T11:06:54.451Z,1.90
2018-04-27T11:07:54.520Z,1.20
2018-04-27T11:08:54.590Z,1.50
2018-04-27T11:09:54.662Z,1.30
2018-04-27T11:10:54.781Z,1.40
2018-04-27T11:11:54.808Z,1.00
2018-04-27T11:12:54.879Z,1.20
2018-04-27T11:13:54.948Z,1.70
2018-04-27T11:14:55.020Z,1.30
2018-04-27T11:15:55.090Z,1.60
2018-04-27T11:16:55.442Z,1.30
2018-04-27T11:17:55.232Z,1.40
2018-04-27T11:18:55.303Z,1.40
2018-04-27T11:19:55.374Z,1.70
2018-04-27T11:20:55.445Z,1.40
2018-04-27T11:21:55.515Z,1.50
2018-04-27T11:22:55.587Z,1.60
2018-04-27T11:23:55.656Z,1.70
2018-04-27T11:24:55.727Z,1.50
2018-04-27T11:25:55.796Z,1.50
2018-04-27T11:26:55.868Z,1.60
2018-04-27T11:27:55.937Z,1.30
2018-04-27T11:28:56.007Z,1.80
2018-04-27T11:29:56.076Z,1.40
2018-04-27T11:30:56.148Z,1.70
2018-04-27T11:31:56.219Z,1.60
2018-04-27T11:32:56.286Z,1.20
2018-04-27T11:33:56.357Z,1.60
2018-04-27T11:34:56.427Z,2.10
2018-04-27T11:35:56.496Z,1.90
2018-04-27T11:36:56.567Z,2.00
2018-04-27T11:37:56.642Z,2.10
2018-04-27T11:38:56.708Z,2.00
2018-04-27T11:39:56.779Z,1.90
2018-04-27T11:40:56.847Z,2.20
2018-04-27T11:41:56.918Z,2.10
2018-04-27T11:42:57.022Z,2.50
2018-04-27T11:43:57.056Z,2.40
2018-04-27T11:44:57.126Z,2.40
2018-04-27T11:45:57.226Z,2.20
2018-04-27T11:46:57.946Z,2.70
2018-04-27T11:47:58.018Z,2.50
2018-04-27T11:48:57.406Z,2.10
2018-04-27T11:49:57.474Z,2.30
2018-04-27T11:50:57.547Z,2.20
2018-04-27T11:51:57.612Z,2.30
2018-04-27T11:52:57.691Z,2.40
2018-04-27T11:53:57.752Z,2.30
2018-04-27T11:54:58.141Z,2.70
2018-04-27T11:55:57.893Z,2.60
2018-04-27T11:56:58.283Z,2.80
2018-04-27T11:57:58.031Z,2.60
2018-04-27T11:58:58.102Z,2.30
2018-04-27T11:59:58.172Z,2.30
2018-04-27T12:00:58.242Z,2.60
2018-04-27T12:01:58.327Z,2.70
2018-04-27T12:02:58.383Z,2.60
2018-04-27T12:03:58.455Z,2.40
2018-04-27T12:04:58.523Z,2.80
2018-04-27T12:05:58.594Z,2.80
2018-04-27T12:06:58.663Z,2.70
2018-04-27T12:07:58.734Z,2.80
2018-04-27T12:08:58.804Z,2.70
2018-04-27T12:09:59.196Z,2.60
2018-04-27T12:10:58.947Z,2.90
2018-04-27T12:11:59.016Z,2.90
2018-04-27T12:12:59.087Z,2.80
2018-04-27T12:13:59.158Z,2.70
2018-04-27T12:14:59.229Z,2.90
2018-04-27T12:15:59.299Z,2.70
2018-04-27T12:16:59.369Z,2.70
2018-04-27T12:17:59.441Z,2.60
2018-04-27T12:18:59.510Z,2.30
2018-04-27T12:19:59.580Z,2.30
2018-04-27T12:20:59.651Z,2.40
2018-04-27T12:21:59.721Z,2.40
2018-04-27T12:22:59.792Z,2.60
2018-04-27T12:23:59.863Z,2.40
2018-04-27T12:24:59.934Z,2.60
2018-04-27T12:26:00.005Z,2.40
2018-04-27T12:27:00.076Z,2.20
2018-04-27T12:28:00.147Z,2.60
2018-04-27T12:29:00.224Z,2.60
2018-04-27T12:30:00.326Z,2.70
2018-04-27T12:31:00.385Z,2.60
2018-04-27T12:32:00.430Z,2.70
2018-04-27T12:33:00.502Z,2.80
2018-04-27T12:34:00.573Z,2.50
2018-04-27T12:35:00.644Z,2.90
2018-04-27T12:36:00.715Z,2.20
2018-04-27T12:37:00.786Z,2.10
2018-04-27T12:38:00.861Z,2.20
2018-04-27T12:39:01.079Z,2.30
2018-04-27T12:40:00.999Z,2.10
2018-04-27T12:41:01.427Z,2.00
2018-04-27T12:42:01.142Z,2.00
2018-04-27T12:43:01.213Z,1.80
2018-04-27T12:44:01.282Z,1.70
2018-04-27T12:45:01.445Z,2.00
2018-04-27T12:46:01.425Z,2.00
2018-04-27T12:47:01.498Z,1.90
2018-04-27T12:48:01.566Z,1.60
2018-04-27T12:49:01.639Z,1.90
2018-04-27T12:50:01.710Z,1.70
2018-04-27T12:51:01.782Z,1.60
2018-04-27T12:52:01.852Z,1.60
2018-04-27T12:53:02.288Z,1.60
2018-04-27T12:54:01.993Z,1.50
2018-04-27T12:55:02.064Z,1.80
2018-04-27T12:56:02.144Z,1.80
2018-04-27T12:57:02.205Z,1.70
2018-04-27T12:58:02.311Z,1.40
2018-04-27T12:59:02.941Z,2.00
2018-04-27T13:00:02.507Z,1.40
2018-04-27T13:01:02.496Z,1.40
2018-04-27T13:02:02.564Z,1.70
2018-04-27T13:03:02.635Z,1.80
2018-04-27T13:04:02.703Z,1.70
2018-04-27T13:05:02.778Z,1.70
2018-04-27T13:06:02.847Z,1.70
2018-04-27T13:07:02.916Z,2.00
2018-04-27T13:08:03.018Z,1.60
2018-04-27T13:09:03.059Z,1.80
2018-04-27T13:10:03.130Z,1.70
2018-04-27T13:11:03.200Z,1.70
2018-04-27T13:12:03.271Z,1.90
2018-04-27T13:13:03.343Z,2.00
2018-04-27T13:14:03.412Z,1.80
2018-04-27T13:15:03.484Z,1.80
2018-04-27T13:16:03.554Z,1.80
2018-04-27T13:17:03.625Z,1.70
2018-04-27T13:18:03.700Z,1.70
2018-04-27T13:19:03.829Z,1.60